createdAt,value
2022-09-24T04:02:59.811Z,99411.28
2022-09-24T04:07:02.393Z,99403.84
2022-09-24T04:11:05.531Z,99409.81
2022-09-24T04:15:08.838Z,99401.31
2022-09-24T04:19:12.766Z,99406.94
2022-09-24T04:23:15.433Z,99403.00
2022-09-24T04:27:18.002Z,99411.72
2022-09-24T04:31:21.006Z,99408.41
2022-09-24T04:35:24.954Z,99414.44
2022-09-24T04:39:27.798Z,99411.97
2022-09-24T04:43:30.265Z,99414.66
2022-09-24T04:47:32.800Z,99409.25
2022-09-24T04:51:36.615Z,99413.00
2022-09-24T04:55:39.348Z,99416.09
2022-09-24T04:59:41.851Z,99418.56
2022-09-24T05:03:51.895Z,99421.28
2022-09-24T05:07:56.851Z,99425.00
2022-09-24T05:11:59.369Z,99433.75
2022-09-24T05:16:02.372Z,99436.44
2022-09-24T05:20:05.540Z,99433.56
2022-09-24T05:24:09.612Z,99436.66
2022-09-24T05:28:12.089Z,99440.41
2022-09-24T05:32:17.108Z,99444.53
2022-09-24T05:36:19.850Z,99439.75
2022-09-24T05:40:41.285Z,99440.75
2022-09-24T05:44:47.388Z,99430.59
2022-09-24T05:48:52.340Z,99435.13
2022-09-24T05:52:54.878Z,99432.25
2022-09-24T05:56:58.735Z,99446.59
2022-09-24T06:01:01.613Z,99447.31
2022-09-24T06:05:04.382Z,99449.22
2022-09-24T06:09:08.950Z,99445.91
2022-09-24T06:13:14.173Z,99448.41
2022-09-24T06:17:16.669Z,99454.63
2022-09-24T06:21:19.165Z,99447.56
2022-09-24T06:25:21.759Z,99444.22
2022-09-24T06:29:25.662Z,99443.78
2022-09-24T06:33:28.592Z,99437.53
2022-09-24T06:37:31.063Z,99433.78
2022-09-24T06:41:33.574Z,99433.16
2022-09-24T06:45:37.803Z,99437.47
2022-09-24T06:49:40.775Z,99434.50
2022-09-24T06:53:43.243Z,99438.19
2022-09-24T06:57:46.182Z,99438.56
2022-09-24T07:01:50.041Z,99432.84
2022-09-24T07:05:52.684Z,99438.22
2022-09-24T07:09:55.245Z,99442.06
2022-09-24T07:13:57.728Z,99429.47
2022-09-24T07:18:01.580Z,99432.28
2022-09-24T07:22:04.063Z,99437.56
2022-09-24T07:26:07.226Z,99432.66
2022-09-24T07:30:10.856Z,99437.00
2022-09-24T07:34:15.734Z,99440.13
2022-09-24T07:38:18.247Z,99453.09
2022-09-24T07:42:21.718Z,99445.19
2022-09-24T07:46:24.641Z,99446.53
2022-09-24T07:50:30.298Z,99444.81
2022-09-24T07:54:32.804Z,99438.63
2022-09-24T07:58:35.622Z,99447.31
2022-09-24T08:02:39.033Z,99447.59
2022-09-24T08:06:47.371Z,99444.84
2022-09-24T08:10:50.247Z,99445.34
2022-09-24T08:14:52.723Z,99455.94
2022-09-24T08:18:55.658Z,99452.72
2022-09-24T08:23:03.147Z,99459.50
2022-09-24T08:27:05.645Z,99455.56
2022-09-24T08:31:11.182Z,99450.22
2022-09-24T08:35:15.666Z,99462.88
2022-09-24T08:39:19.591Z,99460.78
2022-09-24T08:43:38.133Z,99461.53
2022-09-24T08:47:48.263Z,99456.53
2022-09-24T08:52:02.903Z,99465.03
2022-09-24T08:56:07.303Z,99459.53
2022-09-24T09:00:15.436Z,99459.50
2022-09-24T09:04:27.935Z,99459.97
2022-09-24T09:13:10.162Z,99461.16
2022-09-24T09:17:22.212Z,99466.16
2022-09-24T09:21:31.044Z,99467.16
2022-09-24T09:25:36.841Z,99464.91
2022-09-24T09:29:40.722Z,99466.06
2022-09-24T09:33:59.812Z,99464.69
2022-09-24T09:38:11.670Z,99462.28
2022-09-24T09:42:32.052Z,99470.13
2022-09-24T09:46:41.476Z,99472.22
2022-09-24T09:50:47.549Z,99461.91
2022-09-24T09:54:50.064Z,99459.44
2022-09-24T09:58:55.767Z,99462.97
2022-09-24T10:02:59.831Z,99454.25
2022-09-24T10:07:07.844Z,99460.91
2022-09-24T10:11:16.965Z,99459.47
2022-09-24T10:15:21.346Z,99462.00
2022-09-24T10:19:28.093Z,99459.50
2022-09-24T10:23:36.494Z,99454.16
2022-09-24T10:27:39.260Z,99463.28
2022-09-24T10:31:42.294Z,99450.84
2022-09-24T10:35:46.317Z,99449.97
2022-09-24T10:39:58.232Z,99454.91
2022-09-24T10:44:04.617Z,99463.97
2022-09-24T10:48:18.573Z,99451.44
2022-09-24T10:52:38.186Z,99458.00
2022-09-24T10:56:46.615Z,99464.59
2022-09-24T11:01:00.775Z,99446.22
2022-09-24T11:05:10.885Z,99445.69
2022-09-24T11:09:24.386Z,99447.41
2022-09-24T11:13:33.824Z,99448.59
2022-09-24T11:17:39.490Z,99450.94
2022-09-24T11:22:04.463Z,99438.63
2022-09-24T11:26:18.738Z,99447.06
2022-09-24T11:30:24.859Z,99438.22
2022-09-24T11:34:43.072Z,99441.97
2022-09-24T11:38:59.159Z,99438.50
2022-09-24T11:43:16.888Z,99439.44
2022-09-24T11:47:30.777Z,99444.88
2022-09-24T11:51:47.692Z,99430.66
2022-09-24T11:55:55.072Z,99435.59
2022-09-24T12:00:06.991Z,99429.00
2022-09-24T12:04:15.036Z,99432.78
2022-09-24T12:08:27.577Z,99429.69
2022-09-24T12:12:34.342Z,99425.19
2022-09-24T12:16:41.827Z,99430.66
2022-09-24T12:20:50.803Z,99435.34
2022-09-24T12:24:54.689Z,99432.31
2022-09-24T12:29:19.294Z,99426.84
2022-09-24T12:33:30.214Z,99426.56
2022-09-24T12:37:38.449Z,99424.09
2022-09-24T12:41:44.559Z,99429.03
2022-09-24T12:45:47.626Z,99421.63
2022-09-24T12:49:55.989Z,99432.03
2022-09-24T12:54:01.225Z,99423.69
2022-09-24T12:58:06.724Z,99415.59
2022-09-24T13:02:16.740Z,99415.56
2022-09-24T13:06:24.627Z,99411.47
2022-09-24T13:10:30.039Z,99414.50
2022-09-24T13:14:34.534Z,99409.78
2022-09-24T13:18:38.368Z,99408.94
2022-09-24T13:22:42.169Z,99415.31
2022-09-24T13:26:44.724Z,99410.66
2022-09-24T13:30:51.802Z,99433.25
2022-09-24T13:34:54.529Z,99430.94
2022-09-24T13:39:04.931Z,99423.34
2022-09-24T13:43:13.616Z,99432.75
2022-09-24T13:47:23.872Z,99424.06
2022-09-24T13:51:29.787Z,99427.97
2022-09-24T13:55:37.574Z,99418.28
2022-09-24T13:59:40.093Z,99428.41
2022-09-24T14:03:43.825Z,99426.25
2022-09-24T14:08:05.817Z,99418.97
2022-09-24T14:12:16.838Z,99422.69
2022-09-24T14:16:21.401Z,99430.31
2022-09-24T14:20:25.802Z,99424.53
2022-09-24T14:24:30.970Z,99417.72
2022-09-24T14:28:35.764Z,99426.78
2022-09-24T14:32:42.346Z,99418.34
2022-09-24T14:36:44.861Z,99420.44
2022-09-24T14:40:50.945Z,99422.16
2022-09-24T14:44:56.341Z,99428.75
2022-09-24T14:49:17.656Z,99427.78
2022-09-24T14:53:24.635Z,99435.72
2022-09-24T14:57:27.107Z,99428.69
2022-09-24T15:01:34.345Z,99425.31
2022-09-24T15:05:37.112Z,99426.97
2022-09-24T15:09:40.582Z,99426.13
2022-09-24T15:13:43.161Z,99421.47
2022-09-24T15:17:47.848Z,99419.06
2022-09-24T15:21:52.507Z,99421.16
2022-09-24T15:25:55.120Z,99421.13
2022-09-24T15:29:59.802Z,99415.22
2022-09-24T15:34:03.623Z,99415.31
2022-09-24T15:38:06.348Z,99414.66
2022-09-24T15:42:09.511Z,99419.84
2022-09-24T15:46:12.137Z,99416.66
2022-09-24T15:50:16.293Z,99421.19
2022-09-24T15:54:18.796Z,99413.94
2022-09-24T15:58:21.875Z,99420.28
2022-09-24T16:02:27.739Z,99426.31
2022-09-24T16:06:31.554Z,99424.03
2022-09-24T16:10:34.054Z,99426.25
2022-09-24T16:14:36.526Z,99432.66
2022-09-24T16:18:39.757Z,99435.50
2022-09-24T16:22:43.546Z,99442.03
2022-09-24T16:26:46.039Z,99441.69
2022-09-24T16:30:48.815Z,99443.94
2022-09-24T16:34:51.350Z,99457.06
2022-09-24T16:38:55.158Z,99456.13
2022-09-24T16:42:57.622Z,99456.94
2022-09-24T16:47:00.231Z,99460.59
2022-09-24T16:51:04.207Z,99460.50
2022-09-24T16:55:09.527Z,99471.63
2022-09-24T16:59:12.421Z,99469.31
2022-09-24T17:03:14.955Z,99466.50
2022-09-24T17:07:17.483Z,99466.88
2022-09-24T17:11:22.457Z,99470.66
2022-09-24T17:15:24.960Z,99466.66
2022-09-24T17:19:27.483Z,99469.25
2022-09-24T17:23:30.019Z,99462.56
2022-09-24T17:27:34.899Z,99463.25
2022-09-24T17:31:37.509Z,99464.34
2022-09-24T17:35:40.274Z,99471.09
2022-09-24T17:39:42.943Z,99461.38
2022-09-24T17:43:48.019Z,99465.91
2022-09-24T17:48:00.368Z,99462.38
2022-09-24T17:52:03.859Z,99465.19
2022-09-24T17:56:08.120Z,99466.25
2022-09-24T18:00:13.106Z,99467.84
2022-09-24T18:04:18.062Z,99461.63
2022-09-24T18:08:20.563Z,99460.56
2022-09-24T18:12:23.289Z,99461.19
2022-09-24T18:16:29.462Z,99462.00
2022-09-24T18:20:32.236Z,99452.44
2022-09-24T18:24:34.725Z,99463.41
2022-09-24T18:28:38.330Z,99462.81
2022-09-24T18:32:47.085Z,99464.13
2022-09-24T18:36:49.554Z,99464.59
2022-09-24T18:40:52.063Z,99461.88
2022-09-24T18:44:54.643Z,99463.28
2022-09-24T18:48:59.993Z,99467.81
2022-09-24T18:53:02.471Z,99472.63
2022-09-24T18:57:05.184Z,99479.00
2022-09-24T19:01:09.215Z,99476.41
2022-09-24T19:05:13.193Z,99472.03
2022-09-24T19:09:17.233Z,99469.56
2022-09-24T19:13:25.406Z,99475.22
2022-09-24T19:17:28.819Z,99471.09
2022-09-24T19:21:32.761Z,99470.97
2022-09-24T19:25:36.853Z,99476.50
2022-09-24T19:29:39.326Z,99474.66
2022-09-24T19:33:41.952Z,99474.88
2022-09-24T19:37:46.032Z,99479.59
2022-09-24T19:41:52.713Z,99478.91
2022-09-24T19:45:58.124Z,99477.25
2022-09-24T19:50:00.853Z,99473.91
2022-09-24T19:54:07.421Z,99474.50
2022-09-24T19:58:10.309Z,99477.22
2022-09-24T20:02:13.450Z,99473.91
2022-09-24T20:06:18.786Z,99479.84
2022-09-24T20:10:23.905Z,99477.00
2022-09-24T20:14:29.174Z,99470.22
2022-09-24T20:18:36.129Z,99466.78
2022-09-24T20:22:38.653Z,99472.09
2022-09-24T20:27:00.153Z,99469.97
2022-09-24T20:31:03.082Z,99466.53
2022-09-24T20:35:06.520Z,99471.25
2022-09-24T20:39:08.953Z,99484.81
2022-09-24T20:43:12.783Z,99481.56
2022-09-24T20:47:15.510Z,99482.72
2022-09-24T20:51:20.173Z,99484.88
2022-09-24T20:55:22.699Z,99470.25
2022-09-24T20:59:27.341Z,99480.88
